createdAt,value
2018-10-19T00:01:24.286Z,19.70
2018-10-19T00:03:26.261Z,19.70
2018-10-19T00:05:28.285Z,19.70
2018-10-19T00:07:30.300Z,19.70
2018-10-19T00:09:32.334Z,19.70
2018-10-19T00:11:34.329Z,19.70
2018-10-19T00:13:36.316Z,19.70
2018-10-19T00:15:38.342Z,19.70
2018-10-19T00:17:40.341Z,19.70
2018-10-19T00:19:42.314Z,19.70
2018-10-19T00:21:44.360Z,19.70
2018-10-19T00:23:46.362Z,19.70
2018-10-19T00:25:48.396Z,19.70
2018-10-19T00:27:50.413Z,19.70
2018-10-19T00:29:52.437Z,19.70
2018-10-19T00:31:54.475Z,19.70
2018-10-19T00:33:56.455Z,19.70
2018-10-19T00:35:58.481Z,19.70
2018-10-19T00:38:00.473Z,19.70
2018-10-19T00:40:02.499Z,19.70
2018-10-19T00:42:04.510Z,19.70
2018-10-19T00:44:06.498Z,19.60
2018-10-19T00:46:08.480Z,19.70
2018-10-19T00:48:10.513Z,19.70
2018-10-19T00:50:12.525Z,19.70
2018-10-19T00:52:14.549Z,19.70
2018-10-19T00:54:16.561Z,19.60
2018-10-19T00:56:18.584Z,19.60
2018-10-19T00:58:20.620Z,19.60
2018-10-19T01:00:22.650Z,19.60
2018-10-19T01:02:24.632Z,19.60
2018-10-19T01:04:26.658Z,19.60
2018-10-19T01:06:28.648Z,19.60
2018-10-19T01:08:30.678Z,19.60
2018-10-19T01:10:32.710Z,19.60
2018-10-19T01:12:34.773Z,19.60
2018-10-19T01:14:36.770Z,19.60
2018-10-19T01:16:38.798Z,19.60
2018-10-19T01:18:40.843Z,19.60
2018-10-19T01:20:42.909Z,19.50
2018-10-19T01:22:44.898Z,19.60
2018-10-19T01:24:46.954Z,19.60
2018-10-19T01:26:48.939Z,19.50
2018-10-19T01:28:50.922Z,19.60
2018-10-19T01:30:52.960Z,19.50
2018-10-19T01:32:55.006Z,19.50
2018-10-19T01:34:57.188Z,19.50
2018-10-19T01:36:59.185Z,19.50
2018-10-19T01:39:01.177Z,19.50
2018-10-19T01:41:03.187Z,19.50
2018-10-19T01:43:05.179Z,19.50
2018-10-19T01:45:07.223Z,19.50
2018-10-19T01:47:09.269Z,19.50
2018-10-19T01:49:11.195Z,19.50
2018-10-19T01:51:13.251Z,19.50
2018-10-19T01:53:15.270Z,19.50
2018-10-19T01:55:17.217Z,19.50
2018-10-19T01:57:19.226Z,19.50
2018-10-19T01:59:21.237Z,19.50
2018-10-19T02:01:23.293Z,19.50
2018-10-19T02:03:25.291Z,19.40
2018-10-19T02:05:27.261Z,19.40
2018-10-19T02:07:29.285Z,19.50
2018-10-19T02:09:31.259Z,19.40
2018-10-19T02:11:33.303Z,19.40
2018-10-19T02:13:35.276Z,19.40
2018-10-19T02:15:37.291Z,19.40
2018-10-19T02:17:39.287Z,19.40
2018-10-19T02:19:41.276Z,19.40
2018-10-19T02:21:43.296Z,19.40
2018-10-19T02:23:45.291Z,19.40
2018-10-19T02:25:47.300Z,19.40
2018-10-19T02:27:49.283Z,19.40
2018-10-19T02:29:51.269Z,19.40
2018-10-19T02:31:53.300Z,19.40
2018-10-19T02:33:55.278Z,19.30
2018-10-19T02:35:57.267Z,19.40
2018-10-19T02:37:59.289Z,19.40
2018-10-19T02:40:01.283Z,19.40
2018-10-19T02:42:03.300Z,19.40
2018-10-19T02:44:05.328Z,19.30
2018-10-19T02:46:07.325Z,19.30
2018-10-19T02:48:09.319Z,19.30
2018-10-19T02:50:11.326Z,19.30
2018-10-19T02:52:13.324Z,19.30
2018-10-19T02:54:15.308Z,19.30
2018-10-19T02:56:17.342Z,19.30
2018-10-19T02:58:19.338Z,19.30
2018-10-19T03:00:21.350Z,19.30
2018-10-19T03:02:23.326Z,19.30
2018-10-19T03:04:25.403Z,19.30
2018-10-19T03:06:27.480Z,19.30
2018-10-19T03:08:29.458Z,19.30
2018-10-19T03:10:31.463Z,19.30
2018-10-19T03:12:33.472Z,19.30
2018-10-19T03:14:35.481Z,19.30
2018-10-19T03:16:37.469Z,19.20
2018-10-19T03:18:39.473Z,19.20
2018-10-19T03:20:41.493Z,19.20
2018-10-19T03:22:43.543Z,19.20
2018-10-19T03:24:45.558Z,19.20
2018-10-19T03:26:47.556Z,19.20
2018-10-19T03:28:49.542Z,19.20
2018-10-19T03:30:51.656Z,19.20
2018-10-19T03:32:53.596Z,19.20
2018-10-19T03:34:55.603Z,19.20
2018-10-19T03:36:57.643Z,19.20
2018-10-19T03:38:59.622Z,19.20
2018-10-19T03:41:01.666Z,19.20
2018-10-19T03:43:03.635Z,19.20
2018-10-19T03:45:05.666Z,19.20
2018-10-19T03:47:07.637Z,19.20
2018-10-19T03:49:09.727Z,19.20
2018-10-19T03:51:11.713Z,19.20
2018-10-19T03:53:13.697Z,19.20
2018-10-19T03:55:15.688Z,19.20
2018-10-19T03:57:17.783Z,19.20
2018-10-19T03:59:19.904Z,19.20
2018-10-19T04:01:22.260Z,19.20
2018-10-19T04:03:24.274Z,19.20
2018-10-19T04:05:26.319Z,19.20
2018-10-19T04:07:28.304Z,19.20
2018-10-19T04:09:30.287Z,19.20
2018-10-19T04:11:32.307Z,19.20
2018-10-19T04:13:34.309Z,19.20
2018-10-19T04:15:36.317Z,19.20
2018-10-19T04:17:38.386Z,19.20
2018-10-19T04:19:40.368Z,19.10
2018-10-19T04:21:42.400Z,19.20
2018-10-19T04:23:44.412Z,19.20
2018-10-19T04:25:46.436Z,19.20
2018-10-19T04:27:48.422Z,19.20
2018-10-19T04:29:50.408Z,19.20
2018-10-19T04:31:52.459Z,19.20
2018-10-19T04:33:54.429Z,19.20
2018-10-19T04:35:56.436Z,19.20
2018-10-19T04:37:58.526Z,19.20
2018-10-19T04:40:00.506Z,19.20
2018-10-19T04:42:02.627Z,19.10
2018-10-19T04:44:04.524Z,19.20
2018-10-19T04:46:06.520Z,19.10
2018-10-19T04:48:08.521Z,19.20
2018-10-19T04:50:10.557Z,19.10
2018-10-19T04:52:12.576Z,19.20
2018-10-19T04:54:14.609Z,19.20
2018-10-19T04:56:16.630Z,19.10
2018-10-19T04:58:18.656Z,19.10
2018-10-19T05:00:20.644Z,19.10
2018-10-19T05:02:22.653Z,19.10
2018-10-19T05:04:24.718Z,19.10
2018-10-19T05:06:26.758Z,19.20
2018-10-19T05:08:28.674Z,19.10
2018-10-19T05:10:30.719Z,19.20
2018-10-19T05:12:32.827Z,19.20
2018-10-19T05:14:34.747Z,19.20
2018-10-19T05:16:36.796Z,19.20
2018-10-19T05:18:38.804Z,19.20
2018-10-19T05:20:40.816Z,19.30
2018-10-19T05:22:42.839Z,19.30
2018-10-19T05:24:44.938Z,19.40
2018-10-19T05:26:46.868Z,19.40
2018-10-19T05:28:48.901Z,19.40
2018-10-19T05:30:51.277Z,19.40
2018-10-19T05:32:53.320Z,19.50
2018-10-19T05:34:55.356Z,19.50
2018-10-19T05:36:57.321Z,19.50
2018-10-19T05:38:59.306Z,19.50
2018-10-19T05:41:01.375Z,19.50
2018-10-19T05:43:03.315Z,19.60
2018-10-19T05:45:05.316Z,19.60
2018-10-19T05:47:07.403Z,19.60
2018-10-19T05:49:09.384Z,19.60
2018-10-19T05:51:11.404Z,19.60
2018-10-19T05:53:13.454Z,19.60
2018-10-19T05:55:15.448Z,19.60
2018-10-19T05:57:17.474Z,19.70
2018-10-19T05:59:19.457Z,19.70
2018-10-19T06:01:21.481Z,19.70
2018-10-19T06:03:23.478Z,19.70
2018-10-19T06:05:25.520Z,19.70
2018-10-19T06:07:27.559Z,19.70
2018-10-19T06:09:29.539Z,19.80
2018-10-19T06:11:31.547Z,19.70
2018-10-19T06:13:33.599Z,19.70
2018-10-19T06:15:35.607Z,19.70
2018-10-19T06:17:37.653Z,19.70
2018-10-19T06:19:39.908Z,19.60
2018-10-19T06:21:41.886Z,19.60
2018-10-19T06:23:43.866Z,19.50
2018-10-19T06:25:45.997Z,19.50
2018-10-19T06:27:47.866Z,19.50
2018-10-19T06:29:49.865Z,19.50
2018-10-19T06:31:51.903Z,19.40
2018-10-19T06:33:53.895Z,19.40
2018-10-19T06:35:55.885Z,19.50
2018-10-19T06:37:57.944Z,19.40
2018-10-19T06:40:00.293Z,19.40
2018-10-19T06:42:02.269Z,19.40
2018-10-19T06:44:04.333Z,19.50
2018-10-19T06:46:06.521Z,19.30
2018-10-19T06:48:08.570Z,19.20
2018-10-19T06:50:10.619Z,19.10
2018-10-19T06:52:12.577Z,18.90
2018-10-19T06:54:14.538Z,19.00
2018-10-19T06:56:16.654Z,19.10
2018-10-19T06:58:18.549Z,19.20
2018-10-19T07:00:20.559Z,19.20
2018-10-19T07:02:22.562Z,19.20
2018-10-19T07:04:24.809Z,19.20
2018-10-19T07:06:26.804Z,19.20
2018-10-19T07:08:28.876Z,19.10
2018-10-19T07:10:31.229Z,19.20
2018-10-19T07:12:33.216Z,19.10
2018-10-19T07:14:35.234Z,19.10
2018-10-19T07:16:37.220Z,19.00
2018-10-19T07:18:39.194Z,19.00
2018-10-19T07:20:41.221Z,19.00
2018-10-19T07:22:43.218Z,19.00
2018-10-19T07:24:45.197Z,19.00
2018-10-19T07:26:47.205Z,19.00
2018-10-19T07:28:49.197Z,19.00
2018-10-19T07:30:51.232Z,19.00
2018-10-19T07:32:53.481Z,19.00
2018-10-19T07:34:55.484Z,19.00
2018-10-19T07:36:57.457Z,19.00
2018-10-19T07:38:59.484Z,19.00
2018-10-19T07:41:01.572Z,19.00
2018-10-19T07:43:03.914Z,18.90
2018-10-19T07:45:05.917Z,18.90
2018-10-19T07:47:07.969Z,18.90
2018-10-19T07:49:09.925Z,18.90
2018-10-19T07:51:11.934Z,18.90
2018-10-19T07:53:14.046Z,18.00
2018-10-19T07:55:15.947Z,15.60
2018-10-19T07:57:17.912Z,14.30
2018-10-19T07:59:19.947Z,13.50
2018-10-19T08:01:21.941Z,13.10
2018-10-19T08:03:23.908Z,14.10
2018-10-19T08:05:25.936Z,15.40
2018-10-19T08:07:27.924Z,16.50
2018-10-19T08:09:29.951Z,17.20
2018-10-19T08:11:31.969Z,17.60
2018-10-19T08:13:34.260Z,17.90
2018-10-19T08:15:36.290Z,18.10
2018-10-19T08:17:38.284Z,18.20
2018-10-19T08:19:40.875Z,18.30
2018-10-19T08:21:42.888Z,18.30
2018-10-19T08:23:44.913Z,18.40
2018-10-19T08:25:46.943Z,18.40
2018-10-19T08:27:48.935Z,18.50
2018-10-19T08:29:51.011Z,18.70
2018-10-19T08:31:53.033Z,18.90
2018-10-19T08:33:55.034Z,18.90
2018-10-19T08:35:57.314Z,18.80
2018-10-19T08:37:59.282Z,18.80
2018-10-19T08:40:01.256Z,18.70
2018-10-19T08:42:03.285Z,18.70
2018-10-19T08:44:05.267Z,18.70
2018-10-19T08:46:07.278Z,18.70
2018-10-19T08:48:09.307Z,18.70
2018-10-19T08:50:11.357Z,18.80
2018-10-19T08:52:13.337Z,18.80
2018-10-19T08:54:15.325Z,18.80
2018-10-19T08:56:17.337Z,18.80
2018-10-19T08:58:19.422Z,18.80
2018-10-19T09:00:21.360Z,18.80
2018-10-19T09:02:23.347Z,18.80
2018-10-19T09:04:25.374Z,18.80
2018-10-19T09:06:27.309Z,18.80
2018-10-19T09:08:29.264Z,18.80
2018-10-19T09:10:31.280Z,18.80
2018-10-19T09:12:33.330Z,18.90
2018-10-19T09:14:35.628Z,18.80
2018-10-19T09:16:37.605Z,18.90
2018-10-19T09:18:40.778Z,18.90
2018-10-19T09:20:42.702Z,18.90
2018-10-19T09:22:44.671Z,18.90
2018-10-19T09:24:46.690Z,18.90
2018-10-19T09:26:48.704Z,18.90
2018-10-19T09:28:50.690Z,18.90
2018-10-19T09:30:52.710Z,19.00
2018-10-19T09:32:55.124Z,19.00
2018-10-19T09:34:57.131Z,19.00
2018-10-19T09:36:59.178Z,19.00
2018-10-19T09:39:01.183Z,19.00
2018-10-19T09:41:03.260Z,19.00
2018-10-19T09:43:05.174Z,19.10
2018-10-19T09:45:07.189Z,19.00
2018-10-19T09:47:09.448Z,19.00
2018-10-19T09:49:11.538Z,19.00
2018-10-19T09:51:13.592Z,19.00
2018-10-19T09:53:15.543Z,19.00
2018-10-19T09:55:17.712Z,19.00
2018-10-19T09:57:19.722Z,18.90
2018-10-19T09:59:21.712Z,18.90
2018-10-19T10:01:23.724Z,19.00
2018-10-19T10:03:29.320Z,19.00
2018-10-19T10:05:31.344Z,19.00
2018-10-19T10:07:33.366Z,19.10
2018-10-19T10:09:35.358Z,19.00
2018-10-19T10:11:37.383Z,19.00
2018-10-19T10:13:39.361Z,19.00
2018-10-19T10:15:41.430Z,19.00
2018-10-19T10:17:43.402Z,18.90
2018-10-19T10:19:45.405Z,18.90
2018-10-19T10:21:47.406Z,19.00
2018-10-19T10:23:49.424Z,18.90
2018-10-19T10:25:51.506Z,19.00
2018-10-19T10:27:53.501Z,19.10
2018-10-19T10:29:55.464Z,19.10
2018-10-19T10:31:57.541Z,19.10
2018-10-19T10:33:59.512Z,19.00
2018-10-19T10:36:01.493Z,19.00
2018-10-19T10:38:03.520Z,18.90
2018-10-19T10:40:05.567Z,18.90
2018-10-19T10:42:07.508Z,18.90
2018-10-19T10:44:09.497Z,18.90
2018-10-19T10:46:11.504Z,19.00
2018-10-19T10:48:13.525Z,19.10
2018-10-19T10:50:15.587Z,19.10
2018-10-19T10:52:17.621Z,19.00
2018-10-19T10:54:19.615Z,18.90
2018-10-19T10:56:21.626Z,18.80
2018-10-19T10:58:23.608Z,18.80
2018-10-19T11:00:25.624Z,18.80
2018-10-19T11:02:27.628Z,18.80
2018-10-19T11:04:29.632Z,18.80
2018-10-19T11:06:31.662Z,18.60
2018-10-19T11:08:33.678Z,18.60
2018-10-19T11:10:35.651Z,18.60
2018-10-19T11:12:37.666Z,18.70
2018-10-19T11:14:39.692Z,18.80
2018-10-19T11:16:41.712Z,18.80
2018-10-19T11:18:43.695Z,18.80
2018-10-19T11:20:45.689Z,18.90
2018-10-19T11:22:47.698Z,18.80
2018-10-19T11:24:49.690Z,18.80
2018-10-19T11:26:51.694Z,18.80
2018-10-19T11:28:53.977Z,18.80
2018-10-19T11:30:55.995Z,18.80
2018-10-19T11:32:57.982Z,18.80
2018-10-19T11:34:59.961Z,18.80
2018-10-19T11:37:01.996Z,18.70
2018-10-19T11:39:03.972Z,18.70
2018-10-19T11:41:05.969Z,18.80
2018-10-19T11:43:08.008Z,18.90
2018-10-19T11:45:09.951Z,19.20
2018-10-19T11:47:11.973Z,19.30
2018-10-19T11:49:14.065Z,19.50
2018-10-19T11:51:16.002Z,19.50
2018-10-19T11:53:18.000Z,19.50
2018-10-19T11:55:20.008Z,19.60
2018-10-19T11:57:22.022Z,19.70
2018-10-19T11:59:24.061Z,19.80
2018-10-19T12:01:26.065Z,19.80
2018-10-19T12:03:28.100Z,19.80
2018-10-19T12:05:30.107Z,19.80
2018-10-19T12:07:32.091Z,19.90
2018-10-19T12:09:34.054Z,19.80
2018-10-19T12:11:36.046Z,19.30
2018-10-19T12:13:38.052Z,19.10
2018-10-19T12:15:40.057Z,18.90
2018-10-19T12:17:42.063Z,18.90
2018-10-19T12:19:44.070Z,18.90
2018-10-19T12:21:46.076Z,18.90
2018-10-19T12:23:48.077Z,18.90
2018-10-19T12:25:50.147Z,18.80
2018-10-19T12:27:52.117Z,18.80
2018-10-19T12:29:54.128Z,18.80
2018-10-19T12:31:56.162Z,18.70
2018-10-19T12:33:58.148Z,18.80
2018-10-19T12:36:00.138Z,18.80
2018-10-19T12:38:02.204Z,18.60
2018-10-19T12:40:04.240Z,18.70
2018-10-19T12:42:06.229Z,18.50
2018-10-19T12:44:08.219Z,18.60
2018-10-19T12:46:10.238Z,18.80
2018-10-19T12:48:12.226Z,18.50
2018-10-19T12:50:14.197Z,18.30
2018-10-19T12:52:16.198Z,18.30
2018-10-19T12:54:18.203Z,18.60
2018-10-19T12:56:20.205Z,18.80
2018-10-19T12:58:22.174Z,18.60
2018-10-19T13:00:24.180Z,18.10
2018-10-19T13:02:26.152Z,18.00
2018-10-19T13:04:28.144Z,18.10
2018-10-19T13:06:30.146Z,18.20
2018-10-19T13:08:32.116Z,18.10
2018-10-19T13:10:34.128Z,18.10
2018-10-19T13:12:36.144Z,18.10
2018-10-19T13:14:38.233Z,18.00
2018-10-19T13:16:40.224Z,17.90
2018-10-19T13:18:42.223Z,18.00
2018-10-19T13:20:44.202Z,17.80
2018-10-19T13:22:46.219Z,17.60
2018-10-19T13:24:48.246Z,17.70
2018-10-19T13:26:50.262Z,18.20
2018-10-19T13:28:52.247Z,18.20
2018-10-19T13:30:54.241Z,17.90
2018-10-19T13:32:56.275Z,17.90
2018-10-19T13:34:58.273Z,18.00
2018-10-19T13:37:00.261Z,18.00
2018-10-19T13:39:02.300Z,17.90
2018-10-19T13:41:04.321Z,17.80
2018-10-19T13:43:06.310Z,17.60
2018-10-19T13:45:08.291Z,17.60
2018-10-19T13:47:10.321Z,17.80
2018-10-19T13:49:12.283Z,17.70
2018-10-19T13:51:14.375Z,17.60
2018-10-19T13:53:16.305Z,17.60
2018-10-19T13:55:18.298Z,17.80
2018-10-19T13:57:21.134Z,17.70
2018-10-19T13:59:23.147Z,17.80
2018-10-19T14:01:25.159Z,17.90
2018-10-19T14:03:27.175Z,18.00
2018-10-19T14:05:29.360Z,17.80
2018-10-19T14:07:31.455Z,17.70
2018-10-19T14:09:33.437Z,17.80
2018-10-19T14:11:35.458Z,17.70
2018-10-19T14:13:37.431Z,17.70
2018-10-19T14:15:39.402Z,17.80
2018-10-19T14:17:41.419Z,17.80
2018-10-19T14:19:43.430Z,17.90
2018-10-19T14:21:45.409Z,17.90
2018-10-19T14:23:47.438Z,18.00
2018-10-19T14:25:49.421Z,17.80
2018-10-19T14:27:51.419Z,17.60
2018-10-19T14:29:53.421Z,17.60
2018-10-19T14:31:55.427Z,17.60
2018-10-19T14:33:57.441Z,17.50
2018-10-19T14:35:59.424Z,17.50
2018-10-19T14:38:01.384Z,17.40
2018-10-19T14:40:03.389Z,17.30
2018-10-19T14:42:05.424Z,17.20
2018-10-19T14:44:07.431Z,17.10
2018-10-19T14:46:09.418Z,16.90
2018-10-19T14:48:11.384Z,16.70
2018-10-19T14:50:13.389Z,16.70
2018-10-19T14:52:15.386Z,16.60
2018-10-19T14:54:17.415Z,16.50
2018-10-19T14:56:19.445Z,16.50
2018-10-19T14:58:21.475Z,16.50
2018-10-19T15:00:23.513Z,16.40
2018-10-19T15:02:25.479Z,16.40
2018-10-19T15:04:27.833Z,16.30
2018-10-19T15:06:29.813Z,16.10
2018-10-19T15:08:31.839Z,16.00
2018-10-19T15:10:33.969Z,16.00
2018-10-19T15:12:35.813Z,15.90
2018-10-19T15:14:37.866Z,15.70
2018-10-19T15:16:39.874Z,15.60
2018-10-19T15:18:41.998Z,15.70
2018-10-19T15:20:43.937Z,15.70
2018-10-19T15:22:45.999Z,15.50
2018-10-19T15:24:48.013Z,15.40
2018-10-19T15:26:50.010Z,15.30
2018-10-19T15:28:52.037Z,15.30
2018-10-19T15:30:54.009Z,15.30
2018-10-19T15:32:56.045Z,15.20
2018-10-19T15:34:58.072Z,15.40
2018-10-19T15:37:00.059Z,16.30
2018-10-19T15:39:02.173Z,17.20
2018-10-19T15:41:04.221Z,17.60
2018-10-19T15:43:06.179Z,17.90
2018-10-19T15:45:08.242Z,18.10
2018-10-19T15:47:10.222Z,18.20
2018-10-19T15:49:12.263Z,18.20
2018-10-19T15:51:14.296Z,18.30
2018-10-19T15:53:16.229Z,18.30
2018-10-19T15:55:18.242Z,18.30
2018-10-19T15:57:20.242Z,18.40
2018-10-19T15:59:22.684Z,18.40
2018-10-19T16:01:24.690Z,18.50
2018-10-19T16:03:26.716Z,18.50
2018-10-19T16:05:28.777Z,18.50
2018-10-19T16:07:30.760Z,18.60
2018-10-19T16:09:32.756Z,18.50
2018-10-19T16:11:34.751Z,18.50
2018-10-19T16:13:36.791Z,18.50
2018-10-19T16:15:38.790Z,18.60
2018-10-19T16:17:40.839Z,18.70
2018-10-19T16:19:43.066Z,18.80
2018-10-19T16:21:45.095Z,18.80
2018-10-19T16:23:47.091Z,18.70
2018-10-19T16:25:49.118Z,18.70
2018-10-19T16:27:51.100Z,18.80
2018-10-19T16:29:53.165Z,18.80
2018-10-19T16:31:55.145Z,18.90
2018-10-19T16:33:57.126Z,18.90
2018-10-19T16:35:59.199Z,18.90
2018-10-19T16:38:01.148Z,19.00
2018-10-19T16:40:03.174Z,19.00
2018-10-19T16:42:05.210Z,19.00
2018-10-19T16:44:07.198Z,19.00
2018-10-19T16:46:09.252Z,19.00
2018-10-19T16:48:11.258Z,19.20
2018-10-19T16:50:13.270Z,19.20
2018-10-19T16:52:15.314Z,19.30
2018-10-19T16:54:17.436Z,19.30
2018-10-19T16:56:19.358Z,19.30
2018-10-19T16:58:21.415Z,19.40
2018-10-19T17:00:23.417Z,19.30
2018-10-19T17:02:25.495Z,19.40
2018-10-19T17:04:27.750Z,19.30
2018-10-19T17:06:29.770Z,19.30
2018-10-19T17:08:31.760Z,19.30
2018-10-19T17:10:34.318Z,19.20
2018-10-19T17:12:36.772Z,19.20
2018-10-19T17:14:39.597Z,19.20
2018-10-19T17:16:41.574Z,19.20
2018-10-19T17:18:44.334Z,19.20
2018-10-19T17:20:46.326Z,19.20
2018-10-19T17:22:48.337Z,19.30
2018-10-19T17:24:50.370Z,19.40
2018-10-19T17:26:52.508Z,19.40
2018-10-19T17:28:54.545Z,19.40
2018-10-19T17:30:56.793Z,19.40
2018-10-19T17:32:59.296Z,19.40
2018-10-19T17:35:01.325Z,19.40
2018-10-19T17:37:03.317Z,19.30
2018-10-19T17:39:05.376Z,19.30
2018-10-19T17:41:07.462Z,19.30
2018-10-19T17:43:09.418Z,19.40
2018-10-19T17:45:11.436Z,19.30
2018-10-19T17:47:13.427Z,19.30
2018-10-19T17:49:15.879Z,19.30
2018-10-19T17:51:17.849Z,19.30
2018-10-19T17:53:19.875Z,19.30
2018-10-19T17:55:21.904Z,19.30
2018-10-19T17:57:23.907Z,19.30
2018-10-19T17:59:25.909Z,19.30
2018-10-19T18:01:27.912Z,19.30
2018-10-19T18:03:29.935Z,19.30
2018-10-19T18:05:31.928Z,19.30
2018-10-19T18:07:33.932Z,19.30
2018-10-19T18:09:35.996Z,19.30
2018-10-19T18:11:37.989Z,19.30
2018-10-19T18:13:39.955Z,19.30
2018-10-19T18:15:42.029Z,19.30
2018-10-19T18:17:43.991Z,19.30
2018-10-19T18:19:46.040Z,19.30
2018-10-19T18:21:48.198Z,19.30
2018-10-19T18:23:50.118Z,19.30
2018-10-19T18:25:52.058Z,19.20
2018-10-19T18:27:54.040Z,19.20
2018-10-19T18:29:56.065Z,19.20
2018-10-19T18:31:58.083Z,19.20
2018-10-19T18:34:00.376Z,19.20
2018-10-19T18:36:02.389Z,19.30
2018-10-19T18:38:04.392Z,19.30
2018-10-19T18:40:06.389Z,19.30
2018-10-19T18:42:08.368Z,19.40
2018-10-19T18:44:10.423Z,19.40
2018-10-19T18:46:12.388Z,19.40
2018-10-19T18:48:14.491Z,19.40
2018-10-19T18:50:16.610Z,19.40
2018-10-19T18:52:18.581Z,19.40
2018-10-19T18:54:20.987Z,19.40
2018-10-19T18:56:23.028Z,19.40
2018-10-19T18:58:25.037Z,19.40
2018-10-19T19:00:27.029Z,19.40
2018-10-19T19:02:29.088Z,19.40
2018-10-19T19:04:31.090Z,19.40
2018-10-19T19:06:33.109Z,19.40
2018-10-19T19:08:35.092Z,19.40
2018-10-19T19:10:37.155Z,19.40
2018-10-19T19:12:39.140Z,19.40
2018-10-19T19:14:41.196Z,19.40
2018-10-19T19:16:43.142Z,19.40
2018-10-19T19:18:45.245Z,19.40
2018-10-19T19:20:47.256Z,19.40
2018-10-19T19:22:49.274Z,19.40
2018-10-19T19:24:51.270Z,19.50
2018-10-19T19:26:53.332Z,19.50
2018-10-19T19:28:55.344Z,19.50
2018-10-19T19:30:57.536Z,19.50
2018-10-19T19:32:59.564Z,19.50
2018-10-19T19:35:01.866Z,19.50
2018-10-19T19:37:03.761Z,19.50
2018-10-19T19:39:05.764Z,19.50
2018-10-19T19:41:07.853Z,19.50
2018-10-19T19:43:10.111Z,19.50
2018-10-19T19:45:12.095Z,19.50
2018-10-19T19:47:14.186Z,19.50
2018-10-19T19:49:16.155Z,19.40
2018-10-19T19:51:18.131Z,19.50
2018-10-19T19:53:20.124Z,19.50
2018-10-19T19:55:22.189Z,19.50
2018-10-19T19:57:24.204Z,19.50
2018-10-19T19:59:26.300Z,19.50
2018-10-19T20:01:28.316Z,19.50
2018-10-19T20:03:30.468Z,19.50
2018-10-19T20:05:32.465Z,19.50
2018-10-19T20:07:34.457Z,19.50
2018-10-19T20:09:36.489Z,19.50
2018-10-19T20:11:38.514Z,19.50
2018-10-19T20:13:40.501Z,19.50
2018-10-19T20:15:42.497Z,19.50
2018-10-19T20:17:44.520Z,19.50
2018-10-19T20:19:46.548Z,19.50
2018-10-19T20:21:48.545Z,19.50
2018-10-19T20:23:50.587Z,19.40
2018-10-19T20:25:52.577Z,19.50
2018-10-19T20:27:54.568Z,19.50
2018-10-19T20:29:56.593Z,19.40
2018-10-19T20:31:58.621Z,19.40
2018-10-19T20:34:00.557Z,19.40
2018-10-19T20:36:02.615Z,19.40
2018-10-19T20:38:04.712Z,19.40
2018-10-19T20:40:07.188Z,19.40
2018-10-19T20:42:09.212Z,19.40
2018-10-19T20:44:11.271Z,19.40
2018-10-19T20:46:13.235Z,19.40
2018-10-19T20:48:15.233Z,19.40
2018-10-19T20:50:17.351Z,19.40
2018-10-19T20:52:19.255Z,19.40
2018-10-19T20:54:21.332Z,19.40
2018-10-19T20:56:23.304Z,19.40
2018-10-19T20:58:25.656Z,19.40
2018-10-19T21:00:27.675Z,19.40
2018-10-19T21:02:29.708Z,19.40
2018-10-19T21:04:31.693Z,19.40
2018-10-19T21:06:33.674Z,19.40
2018-10-19T21:08:35.691Z,19.40
2018-10-19T21:10:37.730Z,19.40
2018-10-19T21:12:39.742Z,19.40
2018-10-19T21:14:41.768Z,19.40
2018-10-19T21:16:43.753Z,19.40
2018-10-19T21:18:45.808Z,19.40
2018-10-19T21:20:47.806Z,19.40
2018-10-19T21:22:49.804Z,19.40
2018-10-19T21:24:51.848Z,19.30
2018-10-19T21:26:53.847Z,19.30
2018-10-19T21:28:55.867Z,19.30
2018-10-19T21:30:57.886Z,19.30
2018-10-19T21:32:59.872Z,19.30
2018-10-19T21:35:01.908Z,19.30
2018-10-19T21:37:03.881Z,19.30
2018-10-19T21:39:05.926Z,19.40
2018-10-19T21:41:07.972Z,19.30
2018-10-19T21:43:09.856Z,19.40
2018-10-19T21:45:11.987Z,19.30
2018-10-19T21:47:14.097Z,19.30
2018-10-19T21:49:16.470Z,19.30
2018-10-19T21:51:18.482Z,19.30
2018-10-19T21:53:20.474Z,19.30
2018-10-19T21:55:22.531Z,19.30
2018-10-19T21:57:24.518Z,19.30
2018-10-19T21:59:26.543Z,19.30
2018-10-19T22:01:28.541Z,19.30
2018-10-19T22:03:30.587Z,19.30
2018-10-19T22:05:32.618Z,19.30
2018-10-19T22:07:34.655Z,19.30
2018-10-19T22:09:36.605Z,19.30
2018-10-19T22:11:38.632Z,19.30
2018-10-19T22:13:40.650Z,19.30
2018-10-19T22:15:42.690Z,19.30
2018-10-19T22:17:44.693Z,19.30
2018-10-19T22:19:46.669Z,19.30
2018-10-19T22:21:48.709Z,19.30
2018-10-19T22:23:50.730Z,19.30
2018-10-19T22:25:52.801Z,19.30
2018-10-19T22:27:54.746Z,19.20
2018-10-19T22:29:56.811Z,19.30
2018-10-19T22:31:58.798Z,19.20
2018-10-19T22:34:00.798Z,19.30
2018-10-19T22:36:02.849Z,19.20
2018-10-19T22:38:04.893Z,19.20
2018-10-19T22:40:06.908Z,19.20
2018-10-19T22:42:08.906Z,19.20
2018-10-19T22:44:10.920Z,19.20
2018-10-19T22:46:12.969Z,19.20
2018-10-19T22:48:14.949Z,19.20
2018-10-19T22:50:16.943Z,19.20
2018-10-19T22:52:18.963Z,19.20
2018-10-19T22:54:20.947Z,19.20
2018-10-19T22:56:22.982Z,19.20
2018-10-19T22:58:24.986Z,19.20
2018-10-19T23:00:26.992Z,19.20
2018-10-19T23:02:28.977Z,19.20
2018-10-19T23:04:31.008Z,19.20
2018-10-19T23:06:33.081Z,19.20
2018-10-19T23:08:35.073Z,19.20
2018-10-19T23:10:37.071Z,19.20
2018-10-19T23:12:39.090Z,19.20
2018-10-19T23:14:41.138Z,19.20
2018-10-19T23:16:43.127Z,19.20
2018-10-19T23:18:45.151Z,19.20
2018-10-19T23:20:47.143Z,19.20
2018-10-19T23:22:49.168Z,19.20
2018-10-19T23:24:51.182Z,19.20
2018-10-19T23:26:53.170Z,19.20
2018-10-19T23:28:55.158Z,19.20
2018-10-19T23:30:57.204Z,19.10
2018-10-19T23:32:59.549Z,19.10
2018-10-19T23:35:01.600Z,19.10
2018-10-19T23:37:04.000Z,19.10
2018-10-19T23:39:05.996Z,19.10
2018-10-19T23:41:08.001Z,19.00
2018-10-19T23:43:10.068Z,19.00
2018-10-19T23:45:12.473Z,19.00
2018-10-19T23:47:14.537Z,19.00
2018-10-19T23:49:16.832Z,19.00
2018-10-19T23:51:19.032Z,19.00
2018-10-19T23:53:21.024Z,19.00
2018-10-19T23:55:23.049Z,18.90
2018-10-19T23:57:25.029Z,18.90
2018-10-19T23:59:27.067Z,18.90
